PWSweather.com
Personal Weather Stations
Station Observations
OINOFYTA
Oinofyta Greece, OinofytaGR 320 11

Oinofyta GreeceOinofytaGR 320 11

Lat: 38.3080648, Lon: 23.6391172

Elevation: 354

Station Type: ProWeatherStation 1080

http://oinofytaweather.gr/

High Low Average
Temperature 56.7°F13.7°C 41.5°F5.3°C 49.7°F9.8°C
Dew Point 55.3°F12.9°C 40.2°F4.6°C 48.3°F9.1°C
Winds 2.9 mph 4.7 kmh Calm Calm 1.0 mph SW1.6 kmh SW
Wind Gusts 7.6 mph12.2 kmh -- 3.0 mph4.8 kmh
Humidity 95% 93% 95%
Pressure 30.48 in1032.2 mb 30.38 in1028.8 mb -
Precipitation 0.00 in0.0 mm - -
Hour Temp Dew Point Humidity Winds Wind Gusts Pressure Precip Precip Rate Daily Precip Total
12:00 AM 45.0°F7.2°C 43.6°F6.4°C 95% 1.4 mph SW2.3 kmh SW 4.5 mph7.2 kmh 30.39 in1029.1 mb 0.00 in0.0 mm 0.00 in0.0 mm 0.00 in0.0 mm
12:05 AM 44.8°F7.1°C 43.4°F6.3°C 95% 2.1 mph SW3.4 kmh SW 4.5 mph7.2 kmh 30.38 in1028.8 mb 0.00 in0.0 mm 0.00 in0.0 mm 0.00 in0.0 mm
12:10 AM 44.8°F7.1°C 43.4°F6.3°C 95% 1.2 mph SW1.9 kmh SW 3.8 mph6.1 kmh 30.38 in1028.8 mb 0.00 in0.0 mm 0.00 in0.0 mm 0.00 in0.0 mm
12:15 AM 44.6°F7.0°C 43.3°F6.3°C 95% 0.1 mph SE0.2 kmh SE 3.1 mph5.0 kmh 30.39 in1029.1 mb 0.00 in0.0 mm 0.00 in0.0 mm 0.00 in0.0 mm
12:20 AM 44.6°F7.0°C 43.3°F6.3°C 95% 0.5 mph SW0.8 kmh SW 4.5 mph7.2 kmh 30.39 in1029.1 mb 0.00 in0.0 mm 0.00 in0.0 mm 0.00 in0.0 mm
12:25 AM 44.8°F7.1°C 43.4°F6.3°C 95% 1.2 mph SW1.9 kmh SW 4.5 mph7.2 kmh 30.39 in1029.1 mb 0.00 in0.0 mm 0.00 in0.0 mm 0.00 in0.0 mm
12:30 AM 44.4°F6.9°C 43.1°F6.2°C 95% 0.9 mph SW1.4 kmh SW 3.1 mph5.0 kmh 30.39 in1029.1 mb 0.00 in0.0 mm 0.00 in0.0 mm 0.00 in0.0 mm
12:35 AM 44.4°F6.9°C 43.1°F6.2°C 95% 0.2 mph SW0.3 kmh SW 3.1 mph5.0 kmh 30.39 in1029.1 mb 0.00 in0.0 mm 0.00 in0.0 mm 0.00 in0.0 mm
12:40 AM 44.8°F7.1°C 43.4°F6.3°C 95% Calm Calm 0.7 mph1.1 kmh 30.38 in1028.8 mb 0.00 in0.0 mm 0.00 in0.0 mm 0.00 in0.0 mm
12:45 AM 44.8°F7.1°C 43.4°F6.3°C 95% 0.1 mph SSW0.2 kmh SSW 1.6 mph2.6 kmh 30.38 in1028.8 mb 0.00 in0.0 mm 0.00 in0.0 mm 0.00 in0.0 mm
12:50 AM 44.6°F7.0°C 43.3°F6.3°C 95% 0.6 mph SSE1.0 kmh SSE 2.2 mph3.5 kmh 30.39 in1029.1 mb 0.00 in0.0 mm 0.00 in0.0 mm 0.00 in0.0 mm
12:55 AM 44.4°F6.9°C 43.1°F6.2°C 95% 0.6 mph SE1.0 kmh SE 2.2 mph3.5 kmh 30.39 in1029.1 mb 0.00 in0.0 mm 0.00 in0.0 mm 0.00 in0.0 mm
01:00 AM 44.1°F6.7°C 42.7°F5.9°C 95% 0.4 mph WNW0.6 kmh WNW 3.1 mph5.0 kmh 30.39 in1029.1 mb 0.00 in0.0 mm 0.00 in0.0 mm 0.00 in0.0 mm
01:05 AM 43.5°F6.4°C 42.2°F5.7°C 95% 0.9 mph W1.4 kmh W 4.5 mph7.2 kmh 30.39 in1029.1 mb 0.00 in0.0 mm 0.00 in0.0 mm 0.00 in0.0 mm
01:10 AM 43.7°F6.5°C 42.4°F5.8°C 95% 1.1 mph SW1.8 kmh SW 4.5 mph7.2 kmh 30.39 in1029.1 mb 0.00 in0.0 mm 0.00 in0.0 mm 0.00 in0.0 mm
01:15 AM 43.7°F6.5°C 42.4°F5.8°C 95% 0.7 mph SW1.1 kmh SW 4.5 mph7.2 kmh 30.39 in1029.1 mb 0.00 in0.0 mm 0.00 in0.0 mm 0.00 in0.0 mm
01:20 AM 43.9°F6.6°C 42.5°F5.8°C 95% 0.3 mph SSW0.5 kmh SSW 2.2 mph3.5 kmh 30.39 in1029.1 mb 0.00 in0.0 mm 0.00 in0.0 mm 0.00 in0.0 mm
01:25 AM 43.2°F6.2°C 41.8°F5.4°C 95% 0.2 mph S0.3 kmh S 2.2 mph3.5 kmh 30.39 in1029.1 mb 0.00 in0.0 mm 0.00 in0.0 mm 0.00 in0.0 mm
01:30 AM 42.1°F5.6°C 40.8°F4.9°C 95% 0.3 mph ESE0.5 kmh ESE 2.2 mph3.5 kmh 30.40 in1029.5 mb 0.00 in0.0 mm 0.00 in0.0 mm 0.00 in0.0 mm
01:35 AM 41.7°F5.4°C 40.4°F4.7°C 95% 0.2 mph ESE0.3 kmh ESE 2.2 mph3.5 kmh 30.40 in1029.5 mb 0.00 in0.0 mm 0.00 in0.0 mm 0.00 in0.0 mm
01:40 AM 41.7°F5.4°C 40.4°F4.7°C 95% Calm Calm 0.7 mph1.1 kmh 30.40 in1029.5 mb 0.00 in0.0 mm 0.00 in0.0 mm 0.00 in0.0 mm
01:45 AM 41.7°F5.4°C 40.4°F4.7°C 95% Calm Calm 1.6 mph2.6 kmh 30.40 in1029.5 mb 0.00 in0.0 mm 0.00 in0.0 mm 0.00 in0.0 mm
01:50 AM 42.1°F5.6°C 40.8°F4.9°C 95% Calm Calm 1.6 mph2.6 kmh 30.40 in1029.5 mb 0.00 in0.0 mm 0.00 in0.0 mm 0.00 in0.0 mm
01:55 AM 42.8°F6.0°C 41.5°F5.3°C 95% 0.1 mph WSW0.2 kmh WSW 2.2 mph3.5 kmh 30.41 in1029.8 mb 0.00 in0.0 mm 0.00 in0.0 mm 0.00 in0.0 mm
02:00 AM 42.6°F5.9°C 41.3°F5.2°C 95% 0.1 mph WSW0.2 kmh WSW 2.2 mph3.5 kmh 30.41 in1029.8 mb 0.00 in0.0 mm 0.00 in0.0 mm 0.00 in0.0 mm
02:05 AM 42.1°F5.6°C 40.8°F4.9°C 95% Calm Calm 2.2 mph3.5 kmh 30.41 in1029.8 mb 0.00 in0.0 mm 0.00 in0.0 mm 0.00 in0.0 mm
02:10 AM 43.0°F6.1°C 41.6°F5.3°C 95% 0.6 mph SW1.0 kmh SW 3.8 mph6.1 kmh 30.41 in1029.8 mb 0.00 in0.0 mm 0.00 in0.0 mm 0.00 in0.0 mm
02:15 AM 43.2°F6.2°C 41.8°F5.4°C 95% 0.6 mph SW1.0 kmh SW 3.8 mph6.1 kmh 30.41 in1029.8 mb 0.00 in0.0 mm 0.00 in0.0 mm 0.00 in0.0 mm
02:20 AM 43.2°F6.2°C 41.8°F5.4°C 95% 0.2 mph SW0.3 kmh SW 2.2 mph3.5 kmh 30.41 in1029.8 mb 0.00 in0.0 mm 0.00 in0.0 mm 0.00 in0.0 mm
02:25 AM 42.6°F5.9°C 41.3°F5.2°C 95% 0.4 mph WNW0.6 kmh WNW 2.2 mph3.5 kmh 30.41 in1029.8 mb 0.00 in0.0 mm 0.00 in0.0 mm 0.00 in0.0 mm
02:30 AM 43.2°F6.2°C 41.8°F5.4°C 95% 1.2 mph WSW1.9 kmh WSW 5.4 mph8.7 kmh 30.41 in1029.8 mb 0.00 in0.0 mm 0.00 in0.0 mm 0.00 in0.0 mm
02:35 AM 44.1°F6.7°C 42.7°F5.9°C 95% 1.6 mph SSW2.6 kmh SSW 5.4 mph8.7 kmh 30.41 in1029.8 mb 0.00 in0.0 mm 0.00 in0.0 mm 0.00 in0.0 mm
02:40 AM 44.1°F6.7°C 42.7°F5.9°C 95% 0.7 mph SSW1.1 kmh SSW 4.5 mph7.2 kmh 30.41 in1029.8 mb 0.00 in0.0 mm 0.00 in0.0 mm 0.00 in0.0 mm
02:45 AM 44.2°F6.8°C 42.9°F6.1°C 95% 0.3 mph SW0.5 kmh SW 2.2 mph3.5 kmh 30.42 in1030.1 mb 0.00 in0.0 mm 0.00 in0.0 mm 0.00 in0.0 mm
02:50 AM 43.2°F6.2°C 41.8°F5.4°C 95% 0.2 mph SW0.3 kmh SW 2.2 mph3.5 kmh 30.42 in1030.1 mb 0.00 in0.0 mm 0.00 in0.0 mm 0.00 in0.0 mm
02:55 AM 42.1°F5.6°C 40.8°F4.9°C 95% Calm Calm 1.6 mph2.6 kmh 30.41 in1029.8 mb 0.00 in0.0 mm 0.00 in0.0 mm 0.00 in0.0 mm
03:00 AM 42.4°F5.8°C 41.1°F5.1°C 95% Calm Calm 1.6 mph2.6 kmh 30.41 in1029.8 mb 0.00 in0.0 mm 0.00 in0.0 mm 0.00 in0.0 mm
03:05 AM 42.8°F6.0°C 41.5°F5.3°C 95% Calm Calm 1.6 mph2.6 kmh 30.42 in1030.1 mb 0.00 in0.0 mm 0.00 in0.0 mm 0.00 in0.0 mm
03:10 AM 42.6°F5.9°C 41.3°F5.2°C 95% Calm Calm 1.6 mph2.6 kmh 30.42 in1030.1 mb 0.00 in0.0 mm 0.00 in0.0 mm 0.00 in0.0 mm
03:15 AM 42.6°F5.9°C 41.3°F5.2°C 95% Calm Calm 0.7 mph1.1 kmh 30.41 in1029.8 mb 0.00 in0.0 mm 0.00 in0.0 mm 0.00 in0.0 mm
03:20 AM 42.6°F5.9°C 41.3°F5.2°C 95% 0.6 mph SW1.0 kmh SW 3.1 mph5.0 kmh 30.42 in1030.1 mb 0.00 in0.0 mm 0.00 in0.0 mm 0.00 in0.0 mm
03:25 AM 42.4°F5.8°C 41.1°F5.1°C 95% 1.0 mph SW1.6 kmh SW 3.1 mph5.0 kmh 30.42 in1030.1 mb 0.00 in0.0 mm 0.00 in0.0 mm 0.00 in0.0 mm
03:30 AM 42.1°F5.6°C 40.8°F4.9°C 95% 0.6 mph S1.0 kmh S 3.1 mph5.0 kmh 30.42 in1030.1 mb 0.00 in0.0 mm 0.00 in0.0 mm 0.00 in0.0 mm
03:35 AM 41.5°F5.3°C 40.2°F4.6°C 95% 0.2 mph E0.3 kmh E 2.2 mph3.5 kmh 30.42 in1030.1 mb 0.00 in0.0 mm 0.00 in0.0 mm 0.00 in0.0 mm
03:40 AM 41.7°F5.4°C 40.4°F4.7°C 95% Calm Calm 1.6 mph2.6 kmh 30.42 in1030.1 mb 0.00 in0.0 mm 0.00 in0.0 mm 0.00 in0.0 mm
03:45 AM 41.5°F5.3°C 40.2°F4.6°C 95% Calm Calm 1.6 mph2.6 kmh 30.42 in1030.1 mb 0.00 in0.0 mm 0.00 in0.0 mm 0.00 in0.0 mm
03:50 AM 41.5°F5.3°C 40.2°F4.6°C 95% 0.1 mph WSW0.2 kmh WSW 1.6 mph2.6 kmh 30.42 in1030.1 mb 0.00 in0.0 mm 0.00 in0.0 mm 0.00 in0.0 mm
03:55 AM 41.9°F5.5°C 40.6°F4.8°C 95% 0.1 mph WSW0.2 kmh WSW 1.6 mph2.6 kmh 30.42 in1030.1 mb 0.00 in0.0 mm 0.00 in0.0 mm 0.00 in0.0 mm
04:00 AM 42.4°F5.8°C 41.1°F5.1°C 95% 0.9 mph SW1.4 kmh SW 3.8 mph6.1 kmh 30.42 in1030.1 mb 0.00 in0.0 mm 0.00 in0.0 mm 0.00 in0.0 mm
04:05 AM 42.8°F6.0°C 41.5°F5.3°C 95% 1.1 mph SW1.8 kmh SW 3.8 mph6.1 kmh 30.42 in1030.1 mb 0.00 in0.0 mm 0.00 in0.0 mm 0.00 in0.0 mm
04:10 AM 43.2°F6.2°C 41.8°F5.4°C 95% 0.5 mph SW0.8 kmh SW 3.8 mph6.1 kmh 30.42 in1030.1 mb 0.00 in0.0 mm 0.00 in0.0 mm 0.00 in0.0 mm
04:15 AM 43.7°F6.5°C 42.4°F5.8°C 95% 0.9 mph SW1.4 kmh SW 3.1 mph5.0 kmh 30.42 in1030.1 mb 0.00 in0.0 mm 0.00 in0.0 mm 0.00 in0.0 mm
04:20 AM 43.7°F6.5°C 42.4°F5.8°C 95% 1.1 mph SW1.8 kmh SW 3.1 mph5.0 kmh 30.41 in1029.8 mb 0.00 in0.0 mm 0.00 in0.0 mm 0.00 in0.0 mm
04:25 AM 43.5°F6.4°C 42.2°F5.7°C 95% 0.7 mph SSW1.1 kmh SSW 3.1 mph5.0 kmh 30.41 in1029.8 mb 0.00 in0.0 mm 0.00 in0.0 mm 0.00 in0.0 mm
04:30 AM 42.8°F6.0°C 41.5°F5.3°C 95% 0.3 mph E0.5 kmh E 2.2 mph3.5 kmh 30.41 in1029.8 mb 0.00 in0.0 mm 0.00 in0.0 mm 0.00 in0.0 mm
04:35 AM 42.6°F5.9°C 41.3°F5.2°C 95% 0.2 mph E0.3 kmh E 1.6 mph2.6 kmh 30.42 in1030.1 mb 0.00 in0.0 mm 0.00 in0.0 mm 0.00 in0.0 mm
04:40 AM 43.0°F6.1°C 41.6°F5.3°C 95% Calm Calm 1.6 mph2.6 kmh 30.41 in1029.8 mb 0.00 in0.0 mm 0.00 in0.0 mm 0.00 in0.0 mm
04:45 AM 43.2°F6.2°C 41.8°F5.4°C 95% Calm Calm 1.6 mph2.6 kmh 30.41 in1029.8 mb 0.00 in0.0 mm 0.00 in0.0 mm 0.00 in0.0 mm
04:50 AM 43.5°F6.4°C 42.2°F5.7°C 95% Calm Calm 1.6 mph2.6 kmh 30.42 in1030.1 mb 0.00 in0.0 mm 0.00 in0.0 mm 0.00 in0.0 mm
04:55 AM 43.7°F6.5°C 42.4°F5.8°C 95% 0.2 mph NNW0.3 kmh NNW 2.2 mph3.5 kmh 30.42 in1030.1 mb 0.00 in0.0 mm 0.00 in0.0 mm 0.00 in0.0 mm
05:00 AM 43.5°F6.4°C 42.2°F5.7°C 95% 0.2 mph NW0.3 kmh NW 2.2 mph3.5 kmh 30.41 in1029.8 mb 0.00 in0.0 mm 0.00 in0.0 mm 0.00 in0.0 mm
05:05 AM 44.1°F6.7°C 42.7°F5.9°C 95% Calm Calm 1.6 mph2.6 kmh 30.41 in1029.8 mb 0.00 in0.0 mm 0.00 in0.0 mm 0.00 in0.0 mm
05:10 AM 44.6°F7.0°C 43.3°F6.3°C 95% 0.6 mph SW1.0 kmh SW 3.8 mph6.1 kmh 30.42 in1030.1 mb 0.00 in0.0 mm 0.00 in0.0 mm 0.00 in0.0 mm
05:15 AM 45.0°F7.2°C 43.6°F6.4°C 95% 1.7 mph SW2.7 kmh SW 4.5 mph7.2 kmh 30.42 in1030.1 mb 0.00 in0.0 mm 0.00 in0.0 mm 0.00 in0.0 mm
05:20 AM 45.0°F7.2°C 43.6°F6.4°C 95% 1.9 mph SW3.1 kmh SW 4.5 mph7.2 kmh 30.43 in1030.5 mb 0.00 in0.0 mm 0.00 in0.0 mm 0.00 in0.0 mm
05:25 AM 44.2°F6.8°C 42.9°F6.1°C 95% 1.7 mph SW2.7 kmh SW 4.5 mph7.2 kmh 30.42 in1030.1 mb 0.00 in0.0 mm 0.00 in0.0 mm 0.00 in0.0 mm
05:30 AM 44.1°F6.7°C 42.7°F5.9°C 95% 1.1 mph SW1.8 kmh SW 3.8 mph6.1 kmh 30.43 in1030.5 mb 0.00 in0.0 mm 0.00 in0.0 mm 0.00 in0.0 mm
05:35 AM 44.1°F6.7°C 42.7°F5.9°C 95% 1.6 mph SW2.6 kmh SW 5.4 mph8.7 kmh 30.43 in1030.5 mb 0.00 in0.0 mm 0.00 in0.0 mm 0.00 in0.0 mm
05:40 AM 44.1°F6.7°C 42.7°F5.9°C 95% 1.7 mph SW2.7 kmh SW 5.4 mph8.7 kmh 30.43 in1030.5 mb 0.00 in0.0 mm 0.00 in0.0 mm 0.00 in0.0 mm
05:45 AM 44.4°F6.9°C 43.1°F6.2°C 95% 0.5 mph SSW0.8 kmh SSW 3.8 mph6.1 kmh 30.43 in1030.5 mb 0.00 in0.0 mm 0.00 in0.0 mm 0.00 in0.0 mm
05:50 AM 44.6°F7.0°C 43.3°F6.3°C 95% 0.2 mph S0.3 kmh S 2.2 mph3.5 kmh 30.42 in1030.1 mb 0.00 in0.0 mm 0.00 in0.0 mm 0.00 in0.0 mm
05:55 AM 44.8°F7.1°C 43.4°F6.3°C 95% 0.1 mph N0.2 kmh N 2.2 mph3.5 kmh 30.42 in1030.1 mb 0.00 in0.0 mm 0.00 in0.0 mm 0.00 in0.0 mm
06:00 AM 45.0°F7.2°C 43.6°F6.4°C 95% 0.1 mph SE0.2 kmh SE 1.6 mph2.6 kmh 30.42 in1030.1 mb 0.00 in0.0 mm 0.00 in0.0 mm 0.00 in0.0 mm
06:05 AM 44.8°F7.1°C 43.4°F6.3°C 95% Calm Calm 1.6 mph2.6 kmh 30.43 in1030.5 mb 0.00 in0.0 mm 0.00 in0.0 mm 0.00 in0.0 mm
06:10 AM 45.0°F7.2°C 43.6°F6.4°C 95% Calm Calm 0.7 mph1.1 kmh 30.43 in1030.5 mb 0.00 in0.0 mm 0.00 in0.0 mm 0.00 in0.0 mm
06:15 AM 45.1°F7.3°C 43.8°F6.6°C 95% Calm Calm 1.6 mph2.6 kmh 30.43 in1030.5 mb 0.00 in0.0 mm 0.00 in0.0 mm 0.00 in0.0 mm
06:20 AM 45.1°F7.3°C 43.8°F6.6°C 95% Calm Calm 1.6 mph2.6 kmh 30.43 in1030.5 mb 0.00 in0.0 mm 0.00 in0.0 mm 0.00 in0.0 mm
06:25 AM 45.3°F7.4°C 44.0°F6.7°C 95% 0.2 mph S0.3 kmh S 2.2 mph3.5 kmh 30.43 in1030.5 mb 0.00 in0.0 mm 0.00 in0.0 mm 0.00 in0.0 mm
06:30 AM 45.3°F7.4°C 44.0°F6.7°C 95% 0.4 mph SSW0.6 kmh SSW 2.2 mph3.5 kmh 30.43 in1030.5 mb 0.00 in0.0 mm 0.00 in0.0 mm 0.00 in0.0 mm
06:35 AM 45.1°F7.3°C 43.8°F6.6°C 95% 0.3 mph SSW0.5 kmh SSW 2.2 mph3.5 kmh 30.43 in1030.5 mb 0.00 in0.0 mm 0.00 in0.0 mm 0.00 in0.0 mm
06:40 AM 45.3°F7.4°C 44.0°F6.7°C 95% 0.2 mph SW0.3 kmh SW 2.2 mph3.5 kmh 30.43 in1030.5 mb 0.00 in0.0 mm 0.00 in0.0 mm 0.00 in0.0 mm
06:45 AM 45.5°F7.5°C 44.2°F6.8°C 95% 0.3 mph SW0.5 kmh SW 2.2 mph3.5 kmh 30.43 in1030.5 mb 0.00 in0.0 mm 0.00 in0.0 mm 0.00 in0.0 mm
06:50 AM 45.7°F7.6°C 44.3°F6.8°C 95% 0.3 mph SW0.5 kmh SW 2.2 mph3.5 kmh 30.43 in1030.5 mb 0.00 in0.0 mm 0.00 in0.0 mm 0.00 in0.0 mm
06:55 AM 45.9°F7.7°C 44.5°F6.9°C 95% 0.3 mph SW0.5 kmh SW 2.2 mph3.5 kmh 30.43 in1030.5 mb 0.00 in0.0 mm 0.00 in0.0 mm 0.00 in0.0 mm
07:00 AM 45.9°F7.7°C 44.5°F6.9°C 95% 0.4 mph SW0.6 kmh SW 2.2 mph3.5 kmh 30.43 in1030.5 mb 0.00 in0.0 mm 0.00 in0.0 mm 0.00 in0.0 mm
07:05 AM 45.7°F7.6°C 44.3°F6.8°C 95% 0.7 mph SW1.1 kmh SW 3.1 mph5.0 kmh 30.43 in1030.5 mb 0.00 in0.0 mm 0.00 in0.0 mm 0.00 in0.0 mm
07:10 AM 45.7°F7.6°C 44.3°F6.8°C 95% 0.6 mph SW1.0 kmh SW 3.1 mph5.0 kmh 30.43 in1030.5 mb 0.00 in0.0 mm 0.00 in0.0 mm 0.00 in0.0 mm
07:15 AM 45.9°F7.7°C 44.5°F6.9°C 95% 0.2 mph SW0.3 kmh SW 2.2 mph3.5 kmh 30.43 in1030.5 mb 0.00 in0.0 mm 0.00 in0.0 mm 0.00 in0.0 mm
07:20 AM 45.9°F7.7°C 44.5°F6.9°C 95% 0.3 mph SW0.5 kmh SW 2.2 mph3.5 kmh 30.43 in1030.5 mb 0.00 in0.0 mm 0.00 in0.0 mm 0.00 in0.0 mm
07:25 AM 45.7°F7.6°C 44.3°F6.8°C 95% 0.5 mph SW0.8 kmh SW 2.2 mph3.5 kmh 30.43 in1030.5 mb 0.00 in0.0 mm 0.00 in0.0 mm 0.00 in0.0 mm
07:30 AM 45.9°F7.7°C 44.5°F6.9°C 95% 0.4 mph SW0.6 kmh SW 2.2 mph3.5 kmh 30.43 in1030.5 mb 0.00 in0.0 mm 0.00 in0.0 mm 0.00 in0.0 mm
07:35 AM 45.9°F7.7°C 44.5°F6.9°C 95% 0.6 mph SW1.0 kmh SW 2.2 mph3.5 kmh 30.44 in1030.8 mb 0.00 in0.0 mm 0.00 in0.0 mm 0.00 in0.0 mm
07:40 AM 45.9°F7.7°C 44.5°F6.9°C 95% 0.6 mph SW1.0 kmh SW 3.1 mph5.0 kmh 30.44 in1030.8 mb 0.00 in0.0 mm 0.00 in0.0 mm 0.00 in0.0 mm
07:45 AM 46.0°F7.8°C 44.7°F7.1°C 95% 0.3 mph SW0.5 kmh SW 3.1 mph5.0 kmh 30.44 in1030.8 mb 0.00 in0.0 mm 0.00 in0.0 mm 0.00 in0.0 mm
07:50 AM 46.0°F7.8°C 44.7°F7.1°C 95% 0.1 mph SW0.2 kmh SW 2.2 mph3.5 kmh 30.44 in1030.8 mb 0.00 in0.0 mm 0.00 in0.0 mm 0.00 in0.0 mm
07:55 AM 46.0°F7.8°C 44.7°F7.1°C 95% 0.7 mph SSW1.1 kmh SSW 3.8 mph6.1 kmh 30.44 in1030.8 mb 0.00 in0.0 mm 0.00 in0.0 mm 0.00 in0.0 mm
08:00 AM 46.0°F7.8°C 44.7°F7.1°C 95% 1.0 mph SW1.6 kmh SW 3.8 mph6.1 kmh 30.44 in1030.8 mb 0.00 in0.0 mm 0.00 in0.0 mm 0.00 in0.0 mm
08:05 AM 46.0°F7.8°C 44.7°F7.1°C 95% 1.1 mph SW1.8 kmh SW 3.1 mph5.0 kmh 30.45 in1031.2 mb 0.00 in0.0 mm 0.00 in0.0 mm 0.00 in0.0 mm
08:10 AM 46.0°F7.8°C 44.7°F7.1°C 95% 0.9 mph SW1.4 kmh SW 3.1 mph5.0 kmh 30.44 in1030.8 mb 0.00 in0.0 mm 0.00 in0.0 mm 0.00 in0.0 mm
08:15 AM 46.2°F7.9°C 44.9°F7.2°C 95% 1.2 mph SW1.9 kmh SW 3.1 mph5.0 kmh 30.44 in1030.8 mb 0.00 in0.0 mm 0.00 in0.0 mm 0.00 in0.0 mm
08:20 AM 46.2°F7.9°C 44.9°F7.2°C 95% 1.8 mph SW2.9 kmh SW 3.1 mph5.0 kmh 30.44 in1030.8 mb 0.00 in0.0 mm 0.00 in0.0 mm 0.00 in0.0 mm
08:25 AM 46.2°F7.9°C 44.9°F7.2°C 95% 1.8 mph SW2.9 kmh SW 3.1 mph5.0 kmh 30.45 in1031.2 mb 0.00 in0.0 mm 0.00 in0.0 mm 0.00 in0.0 mm
08:30 AM 46.2°F7.9°C 44.9°F7.2°C 95% 1.8 mph SW2.9 kmh SW 3.1 mph5.0 kmh 30.45 in1031.2 mb 0.00 in0.0 mm 0.00 in0.0 mm 0.00 in0.0 mm
08:35 AM 46.2°F7.9°C 44.9°F7.2°C 95% 1.8 mph SW2.9 kmh SW 3.1 mph5.0 kmh 30.45 in1031.2 mb 0.00 in0.0 mm 0.00 in0.0 mm 0.00 in0.0 mm
08:40 AM 46.6°F8.1°C 45.2°F7.3°C 95% 2.0 mph SW3.2 kmh SW 3.8 mph6.1 kmh 30.45 in1031.2 mb 0.00 in0.0 mm 0.00 in0.0 mm 0.00 in0.0 mm
08:45 AM 46.6°F8.1°C 45.2°F7.3°C 95% 2.0 mph SW3.2 kmh SW 3.8 mph6.1 kmh 30.45 in1031.2 mb 0.00 in0.0 mm 0.00 in0.0 mm 0.00 in0.0 mm
08:50 AM 46.4°F8.0°C 45.0°F7.2°C 95% 2.1 mph SW3.4 kmh SW 3.8 mph6.1 kmh 30.45 in1031.2 mb 0.00 in0.0 mm 0.00 in0.0 mm 0.00 in0.0 mm
08:55 AM 46.6°F8.1°C 45.2°F7.3°C 95% 2.3 mph SW3.7 kmh SW 4.5 mph7.2 kmh 30.45 in1031.2 mb 0.00 in0.0 mm 0.00 in0.0 mm 0.00 in0.0 mm
09:00 AM 46.8°F8.2°C 45.4°F7.4°C 95% 2.3 mph SW3.7 kmh SW 4.5 mph7.2 kmh 30.46 in1031.5 mb 0.00 in0.0 mm 0.00 in0.0 mm 0.00 in0.0 mm
09:05 AM 46.8°F8.2°C 45.4°F7.4°C 95% 2.1 mph SW3.4 kmh SW 4.5 mph7.2 kmh 30.46 in1031.5 mb 0.00 in0.0 mm 0.00 in0.0 mm 0.00 in0.0 mm
09:10 AM 46.8°F8.2°C 45.4°F7.4°C 95% 2.2 mph SW3.5 kmh SW 5.4 mph8.7 kmh 30.46 in1031.5 mb 0.00 in0.0 mm 0.00 in0.0 mm 0.00 in0.0 mm
09:15 AM 46.9°F8.3°C 45.6°F7.6°C 95% 2.0 mph SW3.2 kmh SW 5.4 mph8.7 kmh 30.47 in1031.8 mb 0.00 in0.0 mm 0.00 in0.0 mm 0.00 in0.0 mm
09:20 AM 47.1°F8.4°C 45.8°F7.7°C 95% 1.3 mph SW2.1 kmh SW 3.8 mph6.1 kmh 30.47 in1031.8 mb 0.00 in0.0 mm 0.00 in0.0 mm 0.00 in0.0 mm
09:25 AM 47.3°F8.5°C 45.9°F7.7°C 95% 1.6 mph SW2.6 kmh SW 4.5 mph7.2 kmh 30.47 in1031.8 mb 0.00 in0.0 mm 0.00 in0.0 mm 0.00 in0.0 mm
09:30 AM 47.5°F8.6°C 46.1°F7.8°C 95% 1.9 mph SW3.1 kmh SW 4.5 mph7.2 kmh 30.47 in1031.8 mb 0.00 in0.0 mm 0.00 in0.0 mm 0.00 in0.0 mm
09:35 AM 47.7°F8.7°C 46.3°F7.9°C 95% 1.7 mph WSW2.7 kmh WSW 4.5 mph7.2 kmh 30.47 in1031.8 mb 0.00 in0.0 mm 0.00 in0.0 mm 0.00 in0.0 mm
09:40 AM 47.8°F8.8°C 46.5°F8.1°C 95% 1.4 mph WSW2.3 kmh WSW 3.8 mph6.1 kmh 30.47 in1031.8 mb 0.00 in0.0 mm 0.00 in0.0 mm 0.00 in0.0 mm
09:45 AM 47.8°F8.8°C 46.5°F8.1°C 95% 1.4 mph SW2.3 kmh SW 3.8 mph6.1 kmh 30.47 in1031.8 mb 0.00 in0.0 mm 0.00 in0.0 mm 0.00 in0.0 mm
09:50 AM 48.0°F8.9°C 46.7°F8.2°C 95% 1.2 mph SW1.9 kmh SW 3.8 mph6.1 kmh 30.47 in1031.8 mb 0.00 in0.0 mm 0.00 in0.0 mm 0.00 in0.0 mm
09:55 AM 48.2°F9.0°C 46.8°F8.2°C 95% 1.2 mph WSW1.9 kmh WSW 3.8 mph6.1 kmh 30.47 in1031.8 mb 0.00 in0.0 mm 0.00 in0.0 mm 0.00 in0.0 mm
10:00 AM 48.4°F9.1°C 47.0°F8.3°C 95% 1.3 mph WSW2.1 kmh WSW 3.8 mph6.1 kmh 30.48 in1032.2 mb 0.00 in0.0 mm 0.00 in0.0 mm 0.00 in0.0 mm
10:05 AM 48.6°F9.2°C 47.2°F8.4°C 95% 1.3 mph WSW2.1 kmh WSW 3.8 mph6.1 kmh 30.47 in1031.8 mb 0.00 in0.0 mm 0.00 in0.0 mm 0.00 in0.0 mm
10:10 AM 48.7°F9.3°C 47.4°F8.6°C 95% 1.1 mph WSW1.8 kmh WSW 3.1 mph5.0 kmh 30.47 in1031.8 mb 0.00 in0.0 mm 0.00 in0.0 mm 0.00 in0.0 mm
10:15 AM 48.9°F9.4°C 47.6°F8.7°C 95% 1.1 mph WSW1.8 kmh WSW 3.1 mph5.0 kmh 30.48 in1032.2 mb 0.00 in0.0 mm 0.00 in0.0 mm 0.00 in0.0 mm
10:20 AM 48.9°F9.4°C 47.6°F8.7°C 95% 1.2 mph WSW1.9 kmh WSW 3.1 mph5.0 kmh 30.47 in1031.8 mb 0.00 in0.0 mm 0.00 in0.0 mm 0.00 in0.0 mm
10:25 AM 48.9°F9.4°C 47.6°F8.7°C 95% 1.1 mph WSW1.8 kmh WSW 4.5 mph7.2 kmh 30.47 in1031.8 mb 0.00 in0.0 mm 0.00 in0.0 mm 0.00 in0.0 mm
10:30 AM 49.3°F9.6°C 47.9°F8.8°C 95% 1.2 mph WSW1.9 kmh WSW 4.5 mph7.2 kmh 30.47 in1031.8 mb 0.00 in0.0 mm 0.00 in0.0 mm 0.00 in0.0 mm
10:35 AM 49.6°F9.8°C 48.3°F9.1°C 95% 1.2 mph WSW1.9 kmh WSW 3.1 mph5.0 kmh 30.47 in1031.8 mb 0.00 in0.0 mm 0.00 in0.0 mm 0.00 in0.0 mm
10:40 AM 50.0°F10.0°C 48.6°F9.2°C 95% 1.0 mph WSW1.6 kmh WSW 3.8 mph6.1 kmh 30.47 in1031.8 mb 0.00 in0.0 mm 0.00 in0.0 mm 0.00 in0.0 mm
10:45 AM 50.2°F10.1°C 48.8°F9.3°C 95% 1.3 mph WSW2.1 kmh WSW 3.8 mph6.1 kmh 30.47 in1031.8 mb 0.00 in0.0 mm 0.00 in0.0 mm 0.00 in0.0 mm
10:50 AM 50.2°F10.1°C 48.8°F9.3°C 95% 1.6 mph WSW2.6 kmh WSW 3.8 mph6.1 kmh 30.47 in1031.8 mb 0.00 in0.0 mm 0.00 in0.0 mm 0.00 in0.0 mm
10:55 AM 50.7°F10.4°C 49.3°F9.6°C 95% 1.4 mph WSW2.3 kmh WSW 3.8 mph6.1 kmh 30.47 in1031.8 mb 0.00 in0.0 mm 0.00 in0.0 mm 0.00 in0.0 mm
11:00 AM 51.1°F10.6°C 49.7°F9.8°C 95% 1.2 mph W1.9 kmh W 3.8 mph6.1 kmh 30.47 in1031.8 mb 0.00 in0.0 mm 0.00 in0.0 mm 0.00 in0.0 mm
11:05 AM 51.1°F10.6°C 49.7°F9.8°C 95% 1.3 mph W2.1 kmh W 3.8 mph6.1 kmh 30.46 in1031.5 mb 0.00 in0.0 mm 0.00 in0.0 mm 0.00 in0.0 mm
11:10 AM 51.3°F10.7°C 49.9°F9.9°C 95% 1.5 mph WSW2.4 kmh WSW 3.8 mph6.1 kmh 30.45 in1031.2 mb 0.00 in0.0 mm 0.00 in0.0 mm 0.00 in0.0 mm
11:15 AM 51.6°F10.9°C 50.2°F10.1°C 95% 1.2 mph W1.9 kmh W 3.8 mph6.1 kmh 30.46 in1031.5 mb 0.00 in0.0 mm 0.00 in0.0 mm 0.00 in0.0 mm
11:20 AM 51.8°F11.0°C 50.4°F10.2°C 95% 1.0 mph W1.6 kmh W 3.8 mph6.1 kmh 30.45 in1031.2 mb 0.00 in0.0 mm 0.00 in0.0 mm 0.00 in0.0 mm
11:25 AM 52.0°F11.1°C 50.6°F10.3°C 95% 1.0 mph WSW1.6 kmh WSW 3.1 mph5.0 kmh 30.45 in1031.2 mb 0.00 in0.0 mm 0.00 in0.0 mm 0.00 in0.0 mm
11:30 AM 52.2°F11.2°C 50.8°F10.4°C 95% 0.9 mph WSW1.4 kmh WSW 3.1 mph5.0 kmh 30.45 in1031.2 mb 0.00 in0.0 mm 0.00 in0.0 mm 0.00 in0.0 mm
11:35 AM 52.2°F11.2°C 50.8°F10.4°C 95% 0.8 mph WSW1.3 kmh WSW 2.2 mph3.5 kmh 30.45 in1031.2 mb 0.00 in0.0 mm 0.00 in0.0 mm 0.00 in0.0 mm
11:40 AM 52.2°F11.2°C 50.8°F10.4°C 95% 1.0 mph SSW1.6 kmh SSW 2.2 mph3.5 kmh 30.45 in1031.2 mb 0.00 in0.0 mm 0.00 in0.0 mm 0.00 in0.0 mm
11:45 AM 52.3°F11.3°C 51.0°F10.6°C 95% 0.8 mph S1.3 kmh S 2.2 mph3.5 kmh 30.45 in1031.2 mb 0.00 in0.0 mm 0.00 in0.0 mm 0.00 in0.0 mm
11:50 AM 52.5°F11.4°C 51.1°F10.6°C 95% 0.3 mph SW0.5 kmh SW 2.2 mph3.5 kmh 30.45 in1031.2 mb 0.00 in0.0 mm 0.00 in0.0 mm 0.00 in0.0 mm
11:55 AM 52.5°F11.4°C 51.1°F10.6°C 95% 0.6 mph SW1.0 kmh SW 3.1 mph5.0 kmh 30.44 in1030.8 mb 0.00 in0.0 mm 0.00 in0.0 mm 0.00 in0.0 mm
12:00 PM 52.5°F11.4°C 51.1°F10.6°C 95% 1.0 mph SW1.6 kmh SW 3.1 mph5.0 kmh 30.44 in1030.8 mb 0.00 in0.0 mm 0.00 in0.0 mm 0.00 in0.0 mm
12:05 PM 52.9°F11.6°C 51.5°F10.8°C 95% 0.7 mph SW1.1 kmh SW 3.1 mph5.0 kmh 30.44 in1030.8 mb 0.00 in0.0 mm 0.00 in0.0 mm 0.00 in0.0 mm
12:10 PM 52.7°F11.5°C 51.3°F10.7°C 95% 0.8 mph SW1.3 kmh SW 3.1 mph5.0 kmh 30.43 in1030.5 mb 0.00 in0.0 mm 0.00 in0.0 mm 0.00 in0.0 mm
12:15 PM 52.9°F11.6°C 51.5°F10.8°C 95% 0.9 mph SW1.4 kmh SW 3.1 mph5.0 kmh 30.43 in1030.5 mb 0.00 in0.0 mm 0.00 in0.0 mm 0.00 in0.0 mm
12:20 PM 53.1°F11.7°C 51.7°F10.9°C 95% 0.8 mph SW1.3 kmh SW 2.2 mph3.5 kmh 30.43 in1030.5 mb 0.00 in0.0 mm 0.00 in0.0 mm 0.00 in0.0 mm
12:25 PM 53.6°F12.0°C 52.2°F11.2°C 95% 0.9 mph WSW1.4 kmh WSW 3.1 mph5.0 kmh 30.43 in1030.5 mb 0.00 in0.0 mm 0.00 in0.0 mm 0.00 in0.0 mm
12:30 PM 53.6°F12.0°C 52.2°F11.2°C 95% 0.9 mph W1.4 kmh W 3.1 mph5.0 kmh 30.43 in1030.5 mb 0.00 in0.0 mm 0.00 in0.0 mm 0.00 in0.0 mm
12:35 PM 53.6°F12.0°C 52.2°F11.2°C 95% 0.3 mph WSW0.5 kmh WSW 3.1 mph5.0 kmh 30.43 in1030.5 mb 0.00 in0.0 mm 0.00 in0.0 mm 0.00 in0.0 mm
12:40 PM 53.4°F11.9°C 52.0°F11.1°C 95% Calm Calm 1.6 mph2.6 kmh 30.42 in1030.1 mb 0.00 in0.0 mm 0.00 in0.0 mm 0.00 in0.0 mm
12:45 PM 53.4°F11.9°C 52.0°F11.1°C 95% 0.3 mph S0.5 kmh S 3.1 mph5.0 kmh 30.42 in1030.1 mb 0.00 in0.0 mm 0.00 in0.0 mm 0.00 in0.0 mm
12:50 PM 53.4°F11.9°C 52.0°F11.1°C 95% 0.7 mph SSW1.1 kmh SSW 3.1 mph5.0 kmh 30.42 in1030.1 mb 0.00 in0.0 mm 0.00 in0.0 mm 0.00 in0.0 mm
12:55 PM 53.4°F11.9°C 52.0°F11.1°C 95% 1.2 mph SSW1.9 kmh SSW 3.1 mph5.0 kmh 30.42 in1030.1 mb 0.00 in0.0 mm 0.00 in0.0 mm 0.00 in0.0 mm
01:00 PM 53.4°F11.9°C 52.0°F11.1°C 95% 1.5 mph SSW2.4 kmh SSW 3.1 mph5.0 kmh 30.42 in1030.1 mb 0.00 in0.0 mm 0.00 in0.0 mm 0.00 in0.0 mm
01:05 PM 53.6°F12.0°C 52.2°F11.2°C 95% 1.3 mph SSW2.1 kmh SSW 3.1 mph5.0 kmh 30.41 in1029.8 mb 0.00 in0.0 mm 0.00 in0.0 mm 0.00 in0.0 mm
01:10 PM 53.6°F12.0°C 52.2°F11.2°C 95% 1.0 mph SSW1.6 kmh SSW 3.8 mph6.1 kmh 30.41 in1029.8 mb 0.00 in0.0 mm 0.00 in0.0 mm 0.00 in0.0 mm
01:15 PM 53.6°F12.0°C 52.2°F11.2°C 95% 0.7 mph SW1.1 kmh SW 3.8 mph6.1 kmh 30.41 in1029.8 mb 0.00 in0.0 mm 0.00 in0.0 mm 0.00 in0.0 mm
01:20 PM 53.6°F12.0°C 52.2°F11.2°C 95% 0.5 mph WSW0.8 kmh WSW 2.2 mph3.5 kmh 30.41 in1029.8 mb 0.00 in0.0 mm 0.00 in0.0 mm 0.00 in0.0 mm
01:25 PM 53.8°F12.1°C 52.4°F11.3°C 95% 0.5 mph WSW0.8 kmh WSW 2.2 mph3.5 kmh 30.41 in1029.8 mb 0.00 in0.0 mm 0.00 in0.0 mm 0.00 in0.0 mm
01:30 PM 54.0°F12.2°C 52.6°F11.4°C 95% 0.6 mph WSW1.0 kmh WSW 2.2 mph3.5 kmh 30.41 in1029.8 mb 0.00 in0.0 mm 0.00 in0.0 mm 0.00 in0.0 mm
01:35 PM 54.1°F12.3°C 52.7°F11.5°C 95% 0.6 mph SW1.0 kmh SW 2.2 mph3.5 kmh 30.41 in1029.8 mb 0.00 in0.0 mm 0.00 in0.0 mm 0.00 in0.0 mm
01:40 PM 54.3°F12.4°C 52.9°F11.6°C 95% 0.6 mph SW1.0 kmh SW 3.1 mph5.0 kmh 30.41 in1029.8 mb 0.00 in0.0 mm 0.00 in0.0 mm 0.00 in0.0 mm
01:45 PM 54.5°F12.5°C 53.1°F11.7°C 95% 0.4 mph WSW0.6 kmh WSW 3.1 mph5.0 kmh 30.41 in1029.8 mb 0.00 in0.0 mm 0.00 in0.0 mm 0.00 in0.0 mm
01:50 PM 54.5°F12.5°C 53.1°F11.7°C 95% 0.6 mph NW1.0 kmh NW 3.8 mph6.1 kmh 30.40 in1029.5 mb 0.00 in0.0 mm 0.00 in0.0 mm 0.00 in0.0 mm
01:55 PM 54.7°F12.6°C 53.3°F11.8°C 95% 0.7 mph N1.1 kmh N 3.8 mph6.1 kmh 30.40 in1029.5 mb 0.00 in0.0 mm 0.00 in0.0 mm 0.00 in0.0 mm
02:00 PM 54.9°F12.7°C 53.5°F11.9°C 95% 0.7 mph NE1.1 kmh NE 4.5 mph7.2 kmh 30.40 in1029.5 mb 0.00 in0.0 mm 0.00 in0.0 mm 0.00 in0.0 mm
02:05 PM 55.4°F13.0°C 54.0°F12.2°C 95% 0.6 mph NE1.0 kmh NE 4.5 mph7.2 kmh 30.40 in1029.5 mb 0.00 in0.0 mm 0.00 in0.0 mm 0.00 in0.0 mm
02:10 PM 55.9°F13.3°C 54.5°F12.5°C 95% 0.7 mph ESE1.1 kmh ESE 3.8 mph6.1 kmh 30.39 in1029.1 mb 0.00 in0.0 mm 0.00 in0.0 mm 0.00 in0.0 mm
02:15 PM 56.1°F13.4°C 54.7°F12.6°C 95% 1.1 mph E1.8 kmh E 4.5 mph7.2 kmh 30.39 in1029.1 mb 0.00 in0.0 mm 0.00 in0.0 mm 0.00 in0.0 mm
02:20 PM 56.3°F13.5°C 54.9°F12.7°C 95% 1.4 mph ENE2.3 kmh ENE 4.5 mph7.2 kmh 30.39 in1029.1 mb 0.00 in0.0 mm 0.00 in0.0 mm 0.00 in0.0 mm
02:25 PM 55.9°F13.3°C 54.2°F12.3°C 94% 1.3 mph E2.1 kmh E 4.5 mph7.2 kmh 30.38 in1028.8 mb 0.00 in0.0 mm 0.00 in0.0 mm 0.00 in0.0 mm
02:30 PM 56.1°F13.4°C 54.4°F12.4°C 94% 1.1 mph SE1.8 kmh SE 3.8 mph6.1 kmh 30.39 in1029.1 mb 0.00 in0.0 mm 0.00 in0.0 mm 0.00 in0.0 mm
02:35 PM 56.3°F13.5°C 54.9°F12.7°C 95% 1.1 mph E1.8 kmh E 3.8 mph6.1 kmh 30.39 in1029.1 mb 0.00 in0.0 mm 0.00 in0.0 mm 0.00 in0.0 mm
02:40 PM 56.3°F13.5°C 54.9°F12.7°C 95% 0.8 mph SW1.3 kmh SW 3.1 mph5.0 kmh 30.39 in1029.1 mb 0.00 in0.0 mm 0.00 in0.0 mm 0.00 in0.0 mm
02:45 PM 56.7°F13.7°C 55.3°F12.9°C 95% 0.8 mph WSW1.3 kmh WSW 3.8 mph6.1 kmh 30.39 in1029.1 mb 0.00 in0.0 mm 0.00 in0.0 mm 0.00 in0.0 mm
02:50 PM 56.5°F13.6°C 54.5°F12.5°C 93% 1.1 mph NW1.8 kmh NW 3.8 mph6.1 kmh 30.39 in1029.1 mb 0.00 in0.0 mm 0.00 in0.0 mm 0.00 in0.0 mm
02:55 PM 56.5°F13.6°C 54.8°F12.7°C 94% 1.1 mph NW1.8 kmh NW 3.8 mph6.1 kmh 30.38 in1028.8 mb 0.00 in0.0 mm 0.00 in0.0 mm 0.00 in0.0 mm
03:00 PM 56.7°F13.7°C 55.0°F12.8°C 94% 1.1 mph NNW1.8 kmh NNW 3.8 mph6.1 kmh 30.39 in1029.1 mb 0.00 in0.0 mm 0.00 in0.0 mm 0.00 in0.0 mm
03:05 PM 56.7°F13.7°C 54.7°F12.6°C 93% 1.1 mph NNE1.8 kmh NNE 3.8 mph6.1 kmh 30.38 in1028.8 mb 0.00 in0.0 mm 0.00 in0.0 mm 0.00 in0.0 mm
03:10 PM 56.7°F13.7°C 54.7°F12.6°C 93% 1.3 mph NE2.1 kmh NE 3.8 mph6.1 kmh 30.38 in1028.8 mb 0.00 in0.0 mm 0.00 in0.0 mm 0.00 in0.0 mm
03:15 PM 56.7°F13.7°C 54.7°F12.6°C 93% 1.3 mph NNE2.1 kmh NNE 3.8 mph6.1 kmh 30.38 in1028.8 mb 0.00 in0.0 mm 0.00 in0.0 mm 0.00 in0.0 mm
03:20 PM 56.5°F13.6°C 54.5°F12.5°C 93% 1.0 mph NNE1.6 kmh NNE 3.1 mph5.0 kmh 30.39 in1029.1 mb 0.00 in0.0 mm 0.00 in0.0 mm 0.00 in0.0 mm
03:25 PM 56.5°F13.6°C 54.5°F12.5°C 93% 0.7 mph NE1.1 kmh NE 3.1 mph5.0 kmh 30.38 in1028.8 mb 0.00 in0.0 mm 0.00 in0.0 mm 0.00 in0.0 mm
03:30 PM 56.5°F13.6°C 54.5°F12.5°C 93% 0.9 mph E1.4 kmh E 3.1 mph5.0 kmh 30.39 in1029.1 mb 0.00 in0.0 mm 0.00 in0.0 mm 0.00 in0.0 mm
03:35 PM 56.3°F13.5°C 54.3°F12.4°C 93% 0.9 mph ESE1.4 kmh ESE 3.1 mph5.0 kmh 30.39 in1029.1 mb 0.00 in0.0 mm 0.00 in0.0 mm 0.00 in0.0 mm
03:40 PM 56.3°F13.5°C 54.6°F12.6°C 94% 0.3 mph S0.5 kmh S 2.2 mph3.5 kmh 30.39 in1029.1 mb 0.00 in0.0 mm 0.00 in0.0 mm 0.00 in0.0 mm
03:45 PM 56.3°F13.5°C 54.6°F12.6°C 94% 0.2 mph SSE0.3 kmh SSE 2.2 mph3.5 kmh 30.40 in1029.5 mb 0.00 in0.0 mm 0.00 in0.0 mm 0.00 in0.0 mm
03:50 PM 56.5°F13.6°C 54.8°F12.7°C 94% Calm Calm 1.6 mph2.6 kmh 30.40 in1029.5 mb 0.00 in0.0 mm 0.00 in0.0 mm 0.00 in0.0 mm
03:55 PM 56.5°F13.6°C 54.8°F12.7°C 94% 0.3 mph SW0.5 kmh SW 2.2 mph3.5 kmh 30.41 in1029.8 mb 0.00 in0.0 mm 0.00 in0.0 mm 0.00 in0.0 mm
04:00 PM 56.3°F13.5°C 54.6°F12.6°C 94% 0.6 mph SW1.0 kmh SW 2.2 mph3.5 kmh 30.41 in1029.8 mb 0.00 in0.0 mm 0.00 in0.0 mm 0.00 in0.0 mm
04:05 PM 56.3°F13.5°C 54.6°F12.6°C 94% 0.3 mph SSW0.5 kmh SSW 2.2 mph3.5 kmh 30.41 in1029.8 mb 0.00 in0.0 mm 0.00 in0.0 mm 0.00 in0.0 mm
04:10 PM 56.3°F13.5°C 54.9°F12.7°C 95% 0.2 mph WSW0.3 kmh WSW 2.2 mph3.5 kmh 30.41 in1029.8 mb 0.00 in0.0 mm 0.00 in0.0 mm 0.00 in0.0 mm
04:15 PM 56.1°F13.4°C 54.7°F12.6°C 95% 0.4 mph WNW0.6 kmh WNW 2.2 mph3.5 kmh 30.41 in1029.8 mb 0.00 in0.0 mm 0.00 in0.0 mm 0.00 in0.0 mm
04:20 PM 56.1°F13.4°C 54.7°F12.6°C 95% 0.3 mph W0.5 kmh W 2.2 mph3.5 kmh 30.40 in1029.5 mb 0.00 in0.0 mm 0.00 in0.0 mm 0.00 in0.0 mm
04:25 PM 55.9°F13.3°C 54.5°F12.5°C 95% 0.1 mph SW0.2 kmh SW 2.2 mph3.5 kmh 30.40 in1029.5 mb 0.00 in0.0 mm 0.00 in0.0 mm 0.00 in0.0 mm
04:30 PM 55.9°F13.3°C 54.5°F12.5°C 95% 0.1 mph SW0.2 kmh SW 1.6 mph2.6 kmh 30.41 in1029.8 mb 0.00 in0.0 mm 0.00 in0.0 mm 0.00 in0.0 mm
04:35 PM 55.9°F13.3°C 54.5°F12.5°C 95% 0.5 mph SW0.8 kmh SW 3.1 mph5.0 kmh 30.40 in1029.5 mb 0.00 in0.0 mm 0.00 in0.0 mm 0.00 in0.0 mm
04:40 PM 55.8°F13.2°C 54.4°F12.4°C 95% 0.6 mph WSW1.0 kmh WSW 3.1 mph5.0 kmh 30.39 in1029.1 mb 0.00 in0.0 mm 0.00 in0.0 mm 0.00 in0.0 mm
04:45 PM 55.8°F13.2°C 54.4°F12.4°C 95% 0.2 mph WSW0.3 kmh WSW 1.6 mph2.6 kmh 30.40 in1029.5 mb 0.00 in0.0 mm 0.00 in0.0 mm 0.00 in0.0 mm
04:50 PM 55.8°F13.2°C 54.4°F12.4°C 95% 0.1 mph WSW0.2 kmh WSW 1.6 mph2.6 kmh 30.40 in1029.5 mb 0.00 in0.0 mm 0.00 in0.0 mm 0.00 in0.0 mm
04:55 PM 55.8°F13.2°C 54.4°F12.4°C 95% 0.5 mph WNW0.8 kmh WNW 3.1 mph5.0 kmh 30.40 in1029.5 mb 0.00 in0.0 mm 0.00 in0.0 mm 0.00 in0.0 mm
05:00 PM 55.6°F13.1°C 54.2°F12.3°C 95% 0.6 mph N1.0 kmh N 3.1 mph5.0 kmh 30.40 in1029.5 mb 0.00 in0.0 mm 0.00 in0.0 mm 0.00 in0.0 mm
05:05 PM 55.6°F13.1°C 54.2°F12.3°C 95% 0.2 mph NNE0.3 kmh NNE 3.1 mph5.0 kmh 30.40 in1029.5 mb 0.00 in0.0 mm 0.00 in0.0 mm 0.00 in0.0 mm
05:10 PM 55.4°F13.0°C 54.0°F12.2°C 95% 0.3 mph NNE0.5 kmh NNE 2.2 mph3.5 kmh 30.40 in1029.5 mb 0.00 in0.0 mm 0.00 in0.0 mm 0.00 in0.0 mm
05:15 PM 55.4°F13.0°C 54.0°F12.2°C 95% 0.5 mph NNE0.8 kmh NNE 2.2 mph3.5 kmh 30.40 in1029.5 mb 0.00 in0.0 mm 0.00 in0.0 mm 0.00 in0.0 mm
05:20 PM 55.2°F12.9°C 53.8°F12.1°C 95% 0.5 mph NE0.8 kmh NE 2.2 mph3.5 kmh 30.41 in1029.8 mb 0.00 in0.0 mm 0.00 in0.0 mm 0.00 in0.0 mm
05:25 PM 55.0°F12.8°C 53.6°F12.0°C 95% 0.8 mph NE1.3 kmh NE 2.2 mph3.5 kmh 30.41 in1029.8 mb 0.00 in0.0 mm 0.00 in0.0 mm 0.00 in0.0 mm
05:30 PM 55.0°F12.8°C 53.6°F12.0°C 95% 0.8 mph NNE1.3 kmh NNE 2.2 mph3.5 kmh 30.41 in1029.8 mb 0.00 in0.0 mm 0.00 in0.0 mm 0.00 in0.0 mm
05:35 PM 54.9°F12.7°C 53.5°F11.9°C 95% 0.3 mph NNE0.5 kmh NNE 2.2 mph3.5 kmh 30.41 in1029.8 mb 0.00 in0.0 mm 0.00 in0.0 mm 0.00 in0.0 mm
05:40 PM 54.7°F12.6°C 53.3°F11.8°C 95% 0.1 mph N0.2 kmh N 1.6 mph2.6 kmh 30.41 in1029.8 mb 0.00 in0.0 mm 0.00 in0.0 mm 0.00 in0.0 mm
05:45 PM 54.7°F12.6°C 53.3°F11.8°C 95% 0.1 mph WNW0.2 kmh WNW 1.6 mph2.6 kmh 30.41 in1029.8 mb 0.00 in0.0 mm 0.00 in0.0 mm 0.00 in0.0 mm
05:50 PM 54.5°F12.5°C 53.1°F11.7°C 95% 0.3 mph WNW0.5 kmh WNW 2.2 mph3.5 kmh 30.41 in1029.8 mb 0.00 in0.0 mm 0.00 in0.0 mm 0.00 in0.0 mm
05:55 PM 54.5°F12.5°C 53.1°F11.7°C 95% 0.4 mph NW0.6 kmh NW 2.2 mph3.5 kmh 30.41 in1029.8 mb 0.00 in0.0 mm 0.00 in0.0 mm 0.00 in0.0 mm
06:00 PM 54.5°F12.5°C 53.1°F11.7°C 95% 0.3 mph NW0.5 kmh NW 1.6 mph2.6 kmh 30.41 in1029.8 mb 0.00 in0.0 mm 0.00 in0.0 mm 0.00 in0.0 mm
06:05 PM 54.3°F12.4°C 52.9°F11.6°C 95% 0.2 mph NNE0.3 kmh NNE 1.6 mph2.6 kmh 30.41 in1029.8 mb 0.00 in0.0 mm 0.00 in0.0 mm 0.00 in0.0 mm
06:10 PM 54.3°F12.4°C 52.9°F11.6°C 95% 0.1 mph NE0.2 kmh NE 1.6 mph2.6 kmh 30.41 in1029.8 mb 0.00 in0.0 mm 0.00 in0.0 mm 0.00 in0.0 mm
06:15 PM 54.3°F12.4°C 52.9°F11.6°C 95% 0.1 mph NNW0.2 kmh NNW 1.6 mph2.6 kmh 30.41 in1029.8 mb 0.00 in0.0 mm 0.00 in0.0 mm 0.00 in0.0 mm
06:20 PM 54.3°F12.4°C 52.9°F11.6°C 95% 0.1 mph E0.2 kmh E 1.6 mph2.6 kmh 30.41 in1029.8 mb 0.00 in0.0 mm 0.00 in0.0 mm 0.00 in0.0 mm
06:25 PM 54.3°F12.4°C 52.9°F11.6°C 95% 0.2 mph E0.3 kmh E 2.2 mph3.5 kmh 30.42 in1030.1 mb 0.00 in0.0 mm 0.00 in0.0 mm 0.00 in0.0 mm
06:30 PM 54.3°F12.4°C 52.9°F11.6°C 95% 0.2 mph E0.3 kmh E 2.2 mph3.5 kmh 30.42 in1030.1 mb 0.00 in0.0 mm 0.00 in0.0 mm 0.00 in0.0 mm
06:35 PM 54.3°F12.4°C 52.9°F11.6°C 95% 0.3 mph NE0.5 kmh NE 2.2 mph3.5 kmh 30.42 in1030.1 mb 0.00 in0.0 mm 0.00 in0.0 mm 0.00 in0.0 mm
06:40 PM 54.1°F12.3°C 52.7°F11.5°C 95% 0.6 mph NNE1.0 kmh NNE 2.2 mph3.5 kmh 30.43 in1030.5 mb 0.00 in0.0 mm 0.00 in0.0 mm 0.00 in0.0 mm
06:45 PM 54.1°F12.3°C 52.7°F11.5°C 95% 0.3 mph N0.5 kmh N 2.2 mph3.5 kmh 30.43 in1030.5 mb 0.00 in0.0 mm 0.00 in0.0 mm 0.00 in0.0 mm
06:50 PM 54.1°F12.3°C 52.7°F11.5°C 95% 0.2 mph SW0.3 kmh SW 2.2 mph3.5 kmh 30.42 in1030.1 mb 0.00 in0.0 mm 0.00 in0.0 mm 0.00 in0.0 mm
06:55 PM 54.0°F12.2°C 52.6°F11.4°C 95% 0.1 mph SW0.2 kmh SW 2.2 mph3.5 kmh 30.42 in1030.1 mb 0.00 in0.0 mm 0.00 in0.0 mm 0.00 in0.0 mm
07:00 PM 54.0°F12.2°C 52.6°F11.4°C 95% Calm Calm -- 30.42 in1030.1 mb 0.00 in0.0 mm 0.00 in0.0 mm 0.00 in0.0 mm
07:05 PM 53.8°F12.1°C 52.4°F11.3°C 95% 0.1 mph N0.2 kmh N 1.6 mph2.6 kmh 30.43 in1030.5 mb 0.00 in0.0 mm 0.00 in0.0 mm 0.00 in0.0 mm
07:10 PM 53.8°F12.1°C 52.4°F11.3°C 95% 0.2 mph N0.3 kmh N 1.6 mph2.6 kmh 30.43 in1030.5 mb 0.00 in0.0 mm 0.00 in0.0 mm 0.00 in0.0 mm
07:15 PM 53.8°F12.1°C 52.4°F11.3°C 95% Calm Calm 1.6 mph2.6 kmh 30.43 in1030.5 mb 0.00 in0.0 mm 0.00 in0.0 mm 0.00 in0.0 mm
07:20 PM 53.6°F12.0°C 52.2°F11.2°C 95% Calm Calm 0.7 mph1.1 kmh 30.43 in1030.5 mb 0.00 in0.0 mm 0.00 in0.0 mm 0.00 in0.0 mm
07:25 PM 53.6°F12.0°C 52.2°F11.2°C 95% 0.1 mph NW0.2 kmh NW 1.6 mph2.6 kmh 30.43 in1030.5 mb 0.00 in0.0 mm 0.00 in0.0 mm 0.00 in0.0 mm
07:30 PM 53.6°F12.0°C 52.2°F11.2°C 95% 0.3 mph NW0.5 kmh NW 2.2 mph3.5 kmh 30.43 in1030.5 mb 0.00 in0.0 mm 0.00 in0.0 mm 0.00 in0.0 mm
07:35 PM 53.6°F12.0°C 52.2°F11.2°C 95% 0.5 mph WNW0.8 kmh WNW 2.2 mph3.5 kmh 30.43 in1030.5 mb 0.00 in0.0 mm 0.00 in0.0 mm 0.00 in0.0 mm
07:40 PM 53.6°F12.0°C 52.2°F11.2°C 95% 0.7 mph NW1.1 kmh NW 3.1 mph5.0 kmh 30.42 in1030.1 mb 0.00 in0.0 mm 0.00 in0.0 mm 0.00 in0.0 mm
07:45 PM 53.4°F11.9°C 52.0°F11.1°C 95% 0.9 mph WNW1.4 kmh WNW 3.8 mph6.1 kmh 30.43 in1030.5 mb 0.00 in0.0 mm 0.00 in0.0 mm 0.00 in0.0 mm
07:50 PM 53.4°F11.9°C 52.0°F11.1°C 95% 0.9 mph W1.4 kmh W 3.8 mph6.1 kmh 30.43 in1030.5 mb 0.00 in0.0 mm 0.00 in0.0 mm 0.00 in0.0 mm
07:55 PM 53.4°F11.9°C 52.0°F11.1°C 95% 1.3 mph W2.1 kmh W 3.1 mph5.0 kmh 30.43 in1030.5 mb 0.00 in0.0 mm 0.00 in0.0 mm 0.00 in0.0 mm
08:00 PM 52.9°F11.6°C 51.5°F10.8°C 95% 1.5 mph WNW2.4 kmh WNW 2.2 mph3.5 kmh 30.42 in1030.1 mb 0.00 in0.0 mm 0.00 in0.0 mm 0.00 in0.0 mm
08:05 PM 52.7°F11.5°C 51.3°F10.7°C 95% 1.2 mph NW1.9 kmh NW 3.1 mph5.0 kmh 30.43 in1030.5 mb 0.00 in0.0 mm 0.00 in0.0 mm 0.00 in0.0 mm
08:10 PM 52.7°F11.5°C 51.3°F10.7°C 95% 0.6 mph NW1.0 kmh NW 3.1 mph5.0 kmh 30.43 in1030.5 mb 0.00 in0.0 mm 0.00 in0.0 mm 0.00 in0.0 mm
08:15 PM 52.5°F11.4°C 51.1°F10.6°C 95% 0.4 mph WNW0.6 kmh WNW 2.2 mph3.5 kmh 30.43 in1030.5 mb 0.00 in0.0 mm 0.00 in0.0 mm 0.00 in0.0 mm
08:20 PM 52.5°F11.4°C 51.1°F10.6°C 95% 0.4 mph W0.6 kmh W 2.2 mph3.5 kmh 30.43 in1030.5 mb 0.00 in0.0 mm 0.00 in0.0 mm 0.00 in0.0 mm
08:25 PM 52.5°F11.4°C 51.1°F10.6°C 95% 0.5 mph WSW0.8 kmh WSW 2.2 mph3.5 kmh 30.43 in1030.5 mb 0.00 in0.0 mm 0.00 in0.0 mm 0.00 in0.0 mm
08:30 PM 52.5°F11.4°C 51.1°F10.6°C 95% 0.4 mph SW0.6 kmh SW 2.2 mph3.5 kmh 30.43 in1030.5 mb 0.00 in0.0 mm 0.00 in0.0 mm 0.00 in0.0 mm
08:35 PM 52.5°F11.4°C 51.1°F10.6°C 95% Calm Calm 1.6 mph2.6 kmh 30.43 in1030.5 mb 0.00 in0.0 mm 0.00 in0.0 mm 0.00 in0.0 mm
08:40 PM 52.5°F11.4°C 51.1°F10.6°C 95% Calm Calm 1.6 mph2.6 kmh 30.43 in1030.5 mb 0.00 in0.0 mm 0.00 in0.0 mm 0.00 in0.0 mm
08:45 PM 52.3°F11.3°C 51.0°F10.6°C 95% 0.6 mph SW1.0 kmh SW 3.1 mph5.0 kmh 30.43 in1030.5 mb 0.00 in0.0 mm 0.00 in0.0 mm 0.00 in0.0 mm
08:50 PM 52.3°F11.3°C 51.0°F10.6°C 95% 0.9 mph SW1.4 kmh SW 3.1 mph5.0 kmh 30.43 in1030.5 mb 0.00 in0.0 mm 0.00 in0.0 mm 0.00 in0.0 mm
08:55 PM 52.2°F11.2°C 50.8°F10.4°C 95% 1.0 mph SW1.6 kmh SW 3.1 mph5.0 kmh 30.43 in1030.5 mb 0.00 in0.0 mm 0.00 in0.0 mm 0.00 in0.0 mm
09:00 PM 52.2°F11.2°C 50.8°F10.4°C 95% 1.2 mph WSW1.9 kmh WSW 4.5 mph7.2 kmh 30.43 in1030.5 mb 0.00 in0.0 mm 0.00 in0.0 mm 0.00 in0.0 mm
09:05 PM 52.2°F11.2°C 50.8°F10.4°C 95% 1.3 mph WSW2.1 kmh WSW 4.5 mph7.2 kmh 30.43 in1030.5 mb 0.00 in0.0 mm 0.00 in0.0 mm 0.00 in0.0 mm
09:10 PM 52.0°F11.1°C 50.6°F10.3°C 95% 0.9 mph SW1.4 kmh SW 4.5 mph7.2 kmh 30.43 in1030.5 mb 0.00 in0.0 mm 0.00 in0.0 mm 0.00 in0.0 mm
09:15 PM 52.0°F11.1°C 50.6°F10.3°C 95% 0.8 mph WSW1.3 kmh WSW 3.1 mph5.0 kmh 30.43 in1030.5 mb 0.00 in0.0 mm 0.00 in0.0 mm 0.00 in0.0 mm
09:20 PM 52.0°F11.1°C 50.6°F10.3°C 95% 1.0 mph W1.6 kmh W 3.8 mph6.1 kmh 30.43 in1030.5 mb 0.00 in0.0 mm 0.00 in0.0 mm 0.00 in0.0 mm
09:25 PM 52.0°F11.1°C 50.6°F10.3°C 95% 1.1 mph W1.8 kmh W 3.8 mph6.1 kmh 30.43 in1030.5 mb 0.00 in0.0 mm 0.00 in0.0 mm 0.00 in0.0 mm
09:30 PM 52.0°F11.1°C 50.6°F10.3°C 95% 1.5 mph W2.4 kmh W 5.4 mph8.7 kmh 30.42 in1030.1 mb 0.00 in0.0 mm 0.00 in0.0 mm 0.00 in0.0 mm
09:35 PM 52.0°F11.1°C 50.6°F10.3°C 95% 1.5 mph WSW2.4 kmh WSW 5.4 mph8.7 kmh 30.42 in1030.1 mb 0.00 in0.0 mm 0.00 in0.0 mm 0.00 in0.0 mm
09:40 PM 52.2°F11.2°C 50.8°F10.4°C 95% 1.0 mph WSW1.6 kmh WSW 4.5 mph7.2 kmh 30.42 in1030.1 mb 0.00 in0.0 mm 0.00 in0.0 mm 0.00 in0.0 mm
09:45 PM 52.2°F11.2°C 50.8°F10.4°C 95% 0.5 mph SW0.8 kmh SW 2.2 mph3.5 kmh 30.42 in1030.1 mb 0.00 in0.0 mm 0.00 in0.0 mm 0.00 in0.0 mm
09:50 PM 52.0°F11.1°C 50.6°F10.3°C 95% 0.5 mph WSW0.8 kmh WSW 3.1 mph5.0 kmh 30.42 in1030.1 mb 0.00 in0.0 mm 0.00 in0.0 mm 0.00 in0.0 mm
09:55 PM 52.0°F11.1°C 50.6°F10.3°C 95% 1.4 mph WSW2.3 kmh WSW 5.4 mph8.7 kmh 30.43 in1030.5 mb 0.00 in0.0 mm 0.00 in0.0 mm 0.00 in0.0 mm
10:00 PM 51.8°F11.0°C 50.4°F10.2°C 95% 1.9 mph WSW3.1 kmh WSW 5.4 mph8.7 kmh 30.42 in1030.1 mb 0.00 in0.0 mm 0.00 in0.0 mm 0.00 in0.0 mm
10:05 PM 51.8°F11.0°C 50.4°F10.2°C 95% 1.6 mph WSW2.6 kmh WSW 4.5 mph7.2 kmh 30.42 in1030.1 mb 0.00 in0.0 mm 0.00 in0.0 mm 0.00 in0.0 mm
10:10 PM 51.8°F11.0°C 50.4°F10.2°C 95% 1.5 mph SW2.4 kmh SW 4.5 mph7.2 kmh 30.42 in1030.1 mb 0.00 in0.0 mm 0.00 in0.0 mm 0.00 in0.0 mm
10:15 PM 51.8°F11.0°C 50.4°F10.2°C 95% 1.5 mph SW2.4 kmh SW 4.5 mph7.2 kmh 30.42 in1030.1 mb 0.00 in0.0 mm 0.00 in0.0 mm 0.00 in0.0 mm
10:20 PM 51.6°F10.9°C 50.2°F10.1°C 95% 1.5 mph WSW2.4 kmh WSW 4.5 mph7.2 kmh 30.42 in1030.1 mb 0.00 in0.0 mm 0.00 in0.0 mm 0.00 in0.0 mm
10:25 PM 51.6°F10.9°C 50.2°F10.1°C 95% 1.8 mph WSW2.9 kmh WSW 5.4 mph8.7 kmh 30.42 in1030.1 mb 0.00 in0.0 mm 0.00 in0.0 mm 0.00 in0.0 mm
10:30 PM 51.6°F10.9°C 50.2°F10.1°C 95% 2.1 mph WSW3.4 kmh WSW 6.0 mph9.7 kmh 30.42 in1030.1 mb 0.00 in0.0 mm 0.00 in0.0 mm 0.00 in0.0 mm
10:35 PM 51.6°F10.9°C 50.2°F10.1°C 95% 2.0 mph WSW3.2 kmh WSW 6.0 mph9.7 kmh 30.42 in1030.1 mb 0.00 in0.0 mm 0.00 in0.0 mm 0.00 in0.0 mm
10:40 PM 51.6°F10.9°C 50.2°F10.1°C 95% 2.2 mph WSW3.5 kmh WSW 4.5 mph7.2 kmh 30.42 in1030.1 mb 0.00 in0.0 mm 0.00 in0.0 mm 0.00 in0.0 mm
10:45 PM 51.6°F10.9°C 50.2°F10.1°C 95% 1.5 mph W2.4 kmh W 4.5 mph7.2 kmh 30.42 in1030.1 mb 0.00 in0.0 mm 0.00 in0.0 mm 0.00 in0.0 mm
10:50 PM 51.6°F10.9°C 50.2°F10.1°C 95% 1.1 mph W1.8 kmh W 3.8 mph6.1 kmh 30.42 in1030.1 mb 0.00 in0.0 mm 0.00 in0.0 mm 0.00 in0.0 mm
10:55 PM 51.6°F10.9°C 50.2°F10.1°C 95% 1.0 mph W1.6 kmh W 3.8 mph6.1 kmh 30.42 in1030.1 mb 0.00 in0.0 mm 0.00 in0.0 mm 0.00 in0.0 mm
11:00 PM 51.6°F10.9°C 50.2°F10.1°C 95% 0.8 mph WSW1.3 kmh WSW 3.8 mph6.1 kmh 30.42 in1030.1 mb 0.00 in0.0 mm 0.00 in0.0 mm 0.00 in0.0 mm
11:05 PM 51.6°F10.9°C 50.2°F10.1°C 95% 1.0 mph W1.6 kmh W 3.8 mph6.1 kmh 30.42 in1030.1 mb 0.00 in0.0 mm 0.00 in0.0 mm 0.00 in0.0 mm
11:10 PM 51.4°F10.8°C 50.1°F10.1°C 95% 1.6 mph W2.6 kmh W 4.5 mph7.2 kmh 30.42 in1030.1 mb 0.00 in0.0 mm 0.00 in0.0 mm 0.00 in0.0 mm
11:15 PM 51.4°F10.8°C 50.1°F10.1°C 95% 1.3 mph W2.1 kmh W 4.5 mph7.2 kmh 30.42 in1030.1 mb 0.00 in0.0 mm 0.00 in0.0 mm 0.00 in0.0 mm
11:20 PM 51.4°F10.8°C 50.1°F10.1°C 95% 1.1 mph W1.8 kmh W 4.5 mph7.2 kmh 30.42 in1030.1 mb 0.00 in0.0 mm 0.00 in0.0 mm 0.00 in0.0 mm
11:25 PM 51.4°F10.8°C 50.1°F10.1°C 95% 2.0 mph WSW3.2 kmh WSW 5.4 mph8.7 kmh 30.43 in1030.5 mb 0.00 in0.0 mm 0.00 in0.0 mm 0.00 in0.0 mm
11:30 PM 51.4°F10.8°C 50.1°F10.1°C 95% 2.3 mph W3.7 kmh W 5.4 mph8.7 kmh 30.42 in1030.1 mb 0.00 in0.0 mm 0.00 in0.0 mm 0.00 in0.0 mm
11:35 PM 51.3°F10.7°C 49.9°F9.9°C 95% 2.6 mph W4.2 kmh W 5.4 mph8.7 kmh 30.42 in1030.1 mb 0.00 in0.0 mm 0.00 in0.0 mm 0.00 in0.0 mm
11:40 PM 51.3°F10.7°C 49.9°F9.9°C 95% 2.9 mph WSW4.7 kmh WSW 5.4 mph8.7 kmh 30.42 in1030.1 mb 0.00 in0.0 mm 0.00 in0.0 mm 0.00 in0.0 mm
11:45 PM 51.3°F10.7°C 49.9°F9.9°C 95% 2.7 mph W4.3 kmh W 6.9 mph11.1 kmh 30.42 in1030.1 mb 0.00 in0.0 mm 0.00 in0.0 mm 0.00 in0.0 mm
11:50 PM 51.3°F10.7°C 49.9°F9.9°C 95% 2.5 mph W4.0 kmh W 6.9 mph11.1 kmh 30.42 in1030.1 mb 0.00 in0.0 mm 0.00 in0.0 mm 0.00 in0.0 mm
11:55 PM 51.1°F10.6°C 49.7°F9.8°C 95% 2.8 mph W4.5 kmh W 7.6 mph12.2 kmh 30.42 in1030.1 mb 0.00 in0.0 mm 0.00 in0.0 mm 0.00 in0.0 mm